Sutherland Springs, Texas
Current Conditions -  °F | °C
As of 6:58 PM on Monday 20 Oct 2014 (Local Time) from KRND Reporting Station
Clear Clear  
Wind Chill: 77°   Ceiling: Unl
Heat Index: 79°   Visibility: 10mi
Dew Point: 57°   Wind: 8mph
Humidity: 50%   Direction: 90°E
Pressure: 29.99"   Gusts: NA
Location:  29.27°N, 98.06°W
Report Text: KRND 202358Z AUTO 09007KT 10SM CLR 25/14 A2999 RMK AO2 SLP150 T02500140 10286 20250 55000
Loading
Personal Weather Stations






























Interactive Weather Map New forecast layout! Learn more

10-Day Weather Forecast

Advertisements
Track Severe Weather on mobile